Time;durP1;ratioP1;P1;durP2;ratioP2;P2;SDS_P1;SDS_P2;PMS_P1;PMS_P2;Temp;Humidity;BMP_temperature;BMP_pressure;BME280_temperature;BME280_humidity;BME280_pressure;Samples;Min_cycle;Max_cycle;Signal;HPM_P1;HPM_P2
2022/05/08 00:02:35;;;;;;;;;;;19.90;37.90;;;;;;21173218;28;19923;-65
2022/05/08 00:12:37;;;;;;;;;;;19.70;38.20;;;;;;21171530;28;19928;-72
2022/05/08 00:22:40;;;;;;;;;;;;;;;;;;21169877;28;20033;-74
2022/05/08 00:32:41;;;;;;;;;;;19.70;38.50;;;;;;21170776;28;19924;-76
2022/05/08 00:42:43;;;;;;;;;;;19.00;39.40;;;;;;21169081;28;20281;-75
2022/05/08 00:52:45;;;;;;;;;;;18.40;40.70;;;;;;21168468;28;19930;-71
2022/05/08 01:02:47;;;;;;;;;;;;;;;;;;21170617;28;20299;-73
2022/05/08 01:12:49;;;;;;;;;;;19.20;39.50;;;;;;21175469;28;20017;-73
2022/05/08 01:22:51;;;;;;;;;;;18.10;41.70;;;;;;21171671;28;19924;-71
2022/05/08 01:32:57;;;;;;;;;;;17.70;43.00;;;;;;21166354;28;19928;-72
2022/05/08 01:43:04;;;;;;;;;;;17.50;43.90;;;;;;21165528;28;19930;-65
2022/05/08 01:53:15;;;;;;;;;;;18.30;42.60;;;;;;21164225;28;19924;-74
2022/05/08 02:03:32;;;;;;;;;;;17.30;44.50;;;;;;21163659;28;19930;-75
2022/05/08 02:13:45;;;;;;;;;;;17.10;46.60;;;;;;21163304;28;19946;-73
2022/05/08 02:24:05;;;;;;;;;;;;;;;;;;21162854;28;19923;-75
2022/05/08 02:34:16;;;;;;;;;;;;;;;;;;21162672;28;19963;-73
2022/05/08 02:44:25;;;;;;;;;;;;;;;;;;21169237;28;19927;-73
2022/05/08 02:54:32;;;;;;;;;;;;;;;;;;21179754;28;19924;-73
2022/05/08 03:04:39;;;;;;;;;;;;;;;;;;21178155;28;19924;-62
2022/05/08 03:14:44;;;;;;;;;;;;;;;;;;21175470;28;19967;-66
2022/05/08 03:24:49;;;;;;;;;;;;;;;;;;21175248;28;20005;-67
2022/05/08 03:34:54;;;;;;;;;;;;;;;;;;21174668;28;19973;-63
2022/05/08 03:44:57;;;;;;;;;;;;;;;;;;21174753;28;20376;-69
2022/05/08 03:55:00;;;;;;;;;;;;;;;;;;21172533;28;19928;-61
2022/05/08 04:05:03;;;;;;;;;;;;;;;;;;21173932;28;19924;-74
2022/05/08 04:15:05;;;;;;;;;;;;;;;;;;21172337;28;19936;-62
2022/05/08 04:25:10;;;;;;;;;;;15.40;54.30;;;;;;21171937;28;19927;-74
2022/05/08 04:35:14;;;;;;;;;;;14.30;56.90;;;;;;21170326;28;19969;-69
2022/05/08 04:45:16;;;;;;;;;;;14.40;57.10;;;;;;21169978;28;19931;-70
2022/05/08 04:55:20;;;;;;;;;;;14.20;57.50;;;;;;21168554;28;19923;-71
2022/05/08 05:05:22;;;;;;;;;;;14.40;57.00;;;;;;21170971;28;20295;-68
2022/05/08 05:15:24;;;;;;;;;;;14.10;57.40;;;;;;21175679;28;20396;-72
2022/05/08 05:25:27;;;;;;;;;;;14.10;57.40;;;;;;21148121;28;19974;-73
2022/05/08 05:35:29;;;;;;;;;;;14.00;57.70;;;;;;21166151;28;20367;-70
2022/05/08 05:45:31;;;;;;;;;;;14.00;57.70;;;;;;21164648;28;19988;-72
2022/05/08 05:55:34;;;;;;;;;;;14.10;57.90;;;;;;21165128;28;19987;-73
2022/05/08 06:05:35;;;;;;;;;;;14.00;57.70;;;;;;21165267;28;19946;-74
2022/05/08 06:15:38;;;;;;;;;;;14.10;57.80;;;;;;21164838;28;20003;-70
2022/05/08 06:25:41;;;;;;;;;;;14.30;57.70;;;;;;21179345;28;20299;-72
2022/05/08 06:35:44;;;;;;;;;;;14.60;57.10;;;;;;21178888;28;19924;-69
2022/05/08 06:45:45;;;;;;;;;;;15.60;54.40;;;;;;21177966;28;19924;-73
2022/05/08 06:55:47;;;;;;;;;;;16.30;52.50;;;;;;21159564;28;19924;-69
2022/05/08 07:05:49;;;;;;;;;;;16.70;51.10;;;;;;21177584;28;19923;-74
2022/05/08 07:15:50;;;;;;;;;;;17.30;48.50;;;;;;21172288;28;19984;-61
2022/05/08 07:25:54;;;;;;;;;;;;;;;;;;21185822;28;19976;-71
2022/05/08 07:36:14;;;;;;;;;;;18.60;44.90;;;;;;21185115;28;20343;-65
2022/05/08 07:46:16;;;;;;;;;;;19.00;43.90;;;;;;21172370;28;19974;-69
2022/05/08 07:56:17;;;;;;;;;;;19.10;42.80;;;;;;21170574;28;19924;-66
2022/05/08 08:06:19;;;;;;;;;;;19.30;41.90;;;;;;21168977;28;20372;-69
2022/05/08 08:16:20;;;;;;;;;;;19.60;41.90;;;;;;21104974;28;1889222;-63
2022/05/08 08:26:22;;;;;;;;;;;19.70;41.50;;;;;;21170993;28;20296;-66
2022/05/08 08:36:23;;;;;;;;;;;20.10;41.00;;;;;;21170814;28;19924;-67
2022/05/08 08:56:46;;;;;;;;;;;20.50;39.70;;;;;;21169232;28;20297;-74
2022/05/08 09:06:47;;;;;;;;;;;20.70;39.30;;;;;;21169094;28;20024;-74
2022/05/08 09:16:53;;;;;;;;;;;20.90;39.10;;;;;;21168870;28;19931;-75
2022/05/08 09:27:08;;;;;;;;;;;21.20;38.70;;;;;;21202170;27;19928;-73
2022/05/08 09:37:09;;;;;;;;;;;21.70;38.40;;;;;;21166270;28;20295;-74
2022/05/08 09:47:31;;;;;;;;;;;21.90;37.20;;;;;;21163675;28;19924;-70
2022/05/08 09:57:34;;;;;;;;;;;22.20;36.70;;;;;;21164194;28;20387;-74
2022/05/08 10:07:36;;;;;;;;;;;22.50;36.40;;;;;;21164074;28;19923;-70
2022/05/08 10:17:38;;;;;;;;;;;22.20;35.70;;;;;;21144790;28;19931;-73
2022/05/08 10:27:39;;;;;;;;;;;22.60;35.40;;;;;;21165575;28;19924;-73
2022/05/08 10:37:47;;;;;;;;;;;22.70;34.50;;;;;;21163114;28;20269;-74
2022/05/08 10:47:49;;;;;;;;;;;22.70;34.00;;;;;;21161761;28;19928;-73
2022/05/08 10:57:52;;;;;;;;;;;22.60;34.10;;;;;;21161639;28;19970;-74
2022/05/08 11:07:55;;;;;;;;;;;22.70;33.00;;;;;;21175672;28;19923;-70
2022/05/08 11:18:04;;;;;;;;;;;23.10;32.90;;;;;;21176867;28;20295;-71
2022/05/08 11:28:11;;;;;;;;;;;23.40;32.20;;;;;;21175657;28;19924;-75
2022/05/08 11:38:13;;;;;;;;;;;23.60;31.80;;;;;;21175695;28;20050;-74
2022/05/08 11:48:15;;;;;;;;;;;23.50;31.50;;;;;;21174953;28;19923;-67
2022/05/08 11:58:19;;;;;;;;;;;;;;;;;;21155460;28;20302;-75
2022/05/08 12:08:21;;;;;;;;;;;25.10;29.50;;;;;;21182187;28;19931;-72
2022/05/08 12:18:23;;;;;;;;;;;24.50;29.20;;;;;;21171764;28;19923;-72
2022/05/08 12:28:27;;;;;;;;;;;;;;;;;;21172344;28;20031;-75
2022/05/08 12:38:28;;;;;;;;;;;25.80;27.50;;;;;;21172482;28;19963;-73
2022/05/08 12:48:30;;;;;;;;;;;25.20;28.10;;;;;;21184424;27;19947;-64
2022/05/08 13:08:53;;;;;;;;;;;24.70;28.70;;;;;;21167136;28;19969;-71
2022/05/08 13:18:56;;;;;;;;;;;25.10;28.70;;;;;;21166738;28;19923;-62
2022/05/08 13:28:57;;;;;;;;;;;25.10;27.60;;;;;;21167020;28;20391;-72
2022/05/08 13:38:59;;;;;;;;;;;25.00;27.90;;;;;;21167010;28;19928;-74
2022/05/08 13:49:00;;;;;;;;;;;25.10;26.50;;;;;;21165529;28;20353;-70
2022/05/08 13:59:03;;;;;;;;;;;25.20;27.00;;;;;;21163450;28;19975;-63
2022/05/08 14:09:05;;;;;;;;;;;25.30;27.80;;;;;;21163317;28;19931;-64
2022/05/08 14:19:06;;;;;;;;;;;25.70;27.90;;;;;;21164504;28;19967;-72
2022/05/08 14:29:08;;;;;;;;;;;25.80;28.00;;;;;;21163166;28;19923;-74
2022/05/08 14:39:10;;;;;;;;;;;25.70;28.10;;;;;;21169614;28;19947;-62
2022/05/08 14:49:11;;;;;;;;;;;25.70;28.10;;;;;;21179362;28;19923;-66
2022/05/08 14:59:13;;;;;;;;;;;25.90;28.10;;;;;;21179057;28;19927;-65
2022/05/08 15:09:15;;;;;;;;;;;26.10;28.30;;;;;;21159040;28;20410;-73
2022/05/08 15:19:16;;;;;;;;;;;26.40;27.40;;;;;;21192773;27;19976;-72
2022/05/08 15:29:18;;;;;;;;;;;26.20;27.10;;;;;;21177177;28;20384;-69
2022/05/08 15:39:19;;;;;;;;;;;26.10;27.40;;;;;;21175878;28;19927;-69
2022/05/08 15:49:21;;;;;;;;;;;26.00;27.50;;;;;;21174228;28;19924;-70
2022/05/08 15:59:23;;;;;;;;;;;26.00;27.60;;;;;;21173449;28;20344;-72
2022/05/08 16:09:25;;;;;;;;;;;26.10;26.60;;;;;;21155005;28;20345;-67
2022/05/08 16:29:47;;;;;;;;;;;26.10;26.60;;;;;;21190749;28;19924;-73
2022/05/08 16:39:48;;;;;;;;;;;26.00;26.90;;;;;;21170897;28;20367;-68
2022/05/08 16:49:50;;;;;;;;;;;25.90;26.90;;;;;;21168779;28;19924;-68
2022/05/08 16:59:52;;;;;;;;;;;25.90;27.20;;;;;;21150205;28;19924;-64
2022/05/08 17:09:53;;;;;;;;;;;25.90;27.00;;;;;;21167865;28;20376;-65
2022/05/08 17:19:56;;;;;;;;;;;25.80;27.10;;;;;;21167944;28;20272;-61
2022/05/08 17:29:57;;;;;;;;;;;25.70;27.20;;;;;;21166240;28;19974;-73
2022/05/08 17:39:59;;;;;;;;;;;25.60;27.20;;;;;;21166039;28;19928;-71
2022/05/08 17:50:02;;;;;;;;;;;25.60;27.50;;;;;;21167473;28;19924;-73
2022/05/08 18:00:05;;;;;;;;;;;25.60;27.40;;;;;;21189985;28;19976;-73
2022/05/08 18:10:07;;;;;;;;;;;25.40;27.10;;;;;;21165131;28;19924;-74
2022/05/08 18:20:09;;;;;;;;;;;25.20;27.00;;;;;;21180807;28;19924;-70
2022/05/08 18:30:11;;;;;;;;;;;25.10;26.90;;;;;;21180218;28;20376;-72
2022/05/08 18:40:13;;;;;;;;;;;24.90;27.10;;;;;;21180957;28;19967;-72
2022/05/08 18:50:14;;;;;;;;;;;24.70;27.10;;;;;;21178488;28;20023;-62
2022/05/08 19:00:16;;;;;;;;;;;24.60;27.10;;;;;;21178667;28;19971;-72
2022/05/08 19:10:18;;;;;;;;;;;24.40;28.70;;;;;;21192079;27;19993;-72
2022/05/08 19:20:20;;;;;;;;;;;24.20;27.40;;;;;;21177094;28;19971;-71
2022/05/08 19:30:22;;;;;;;;;;;24.00;26.70;;;;;;21175511;28;19924;-62
2022/05/08 19:40:24;;;;;;;;;;;23.90;26.40;;;;;;21175727;28;19924;-73
2022/05/08 19:50:26;;;;;;;;;;;23.70;26.00;;;;;;21175974;28;20368;-65
2022/05/08 20:00:27;;;;;;;;;;;23.60;26.70;;;;;;21173911;28;19966;-63
2022/05/08 20:10:29;;;;;;;;;;;23.40;27.10;;;;;;21176972;28;20028;-72
2022/05/08 20:31:12;;;;;;;;;;;22.80;28.80;;;;;;20995117;28;19974;-64
2022/05/08 20:41:15;;;;;;;;;;;22.60;29.10;;;;;;20994436;28;19931;-65
2022/05/08 20:51:16;;;;;;;;;;;22.60;30.10;;;;;;20993727;28;19973;-62
2022/05/08 21:01:20;;;;;;;;;;;22.30;30.80;;;;;;21136899;28;20287;-73
2022/05/08 21:11:21;;;;;;;;;;;22.10;31.70;;;;;;21170779;28;19954;-64
2022/05/08 21:21:23;;;;;;;;;;;21.70;32.50;;;;;;21150404;28;20058;-73
2022/05/08 21:31:25;;;;;;;;;;;21.60;32.90;;;;;;21172375;28;19928;-72
2022/05/08 21:41:26;;;;;;;;;;;21.40;33.30;;;;;;21167702;28;19938;-67
2022/05/08 21:51:28;;;;;;;;;;;21.30;33.70;;;;;;21165941;28;19930;-69
2022/05/08 22:01:30;;;;;;;;;;;21.20;34.00;;;;;;21167120;28;19928;-66
2022/05/08 22:11:31;;;;;;;;;;;21.10;33.40;;;;;;21149675;28;19923;-64
2022/05/08 22:21:33;;;;;;;;;;;21.00;33.40;;;;;;21164290;28;19923;-66
2022/05/08 22:31:35;;;;;;;;;;;21.00;33.60;;;;;;21163972;28;19927;-72
2022/05/08 22:41:37;;;;;;;;;;;20.90;33.60;;;;;;21162055;28;19938;-68
2022/05/08 22:51:39;;;;;;;;;;;20.70;33.90;;;;;;21143036;28;20329;-63
2022/05/08 23:01:40;;;;;;;;;;;20.70;34.60;;;;;;21151186;28;19927;-62
2022/05/08 23:11:43;;;;;;;;;;;20.50;35.50;;;;;;21177314;28;19923;-61
2022/05/08 23:21:45;;;;;;;;;;;;;;;;;;21177636;28;19924;-62
2022/05/08 23:31:46;;;;;;;;;;;21.30;34.90;;;;;;21177104;28;20444;-61
2022/05/08 23:41:48;;;;;;;;;;;;;;;;;;21174623;28;19924;-62
2022/05/08 23:51:50;;;;;;;;;;;;;;;;;;21175120;28;19927;-61
